createdAt,value
2023-12-11T00:02:25.783Z,99313.60
2023-12-11T00:05:00.548Z,99308.60
2023-12-11T00:07:35.068Z,99309.60
2023-12-11T00:10:11.870Z,99315.80
2023-12-11T00:12:46.739Z,99326.60
2023-12-11T00:15:21.877Z,99333.00
2023-12-11T00:17:56.588Z,99328.80
2023-12-11T00:20:31.313Z,99329.80
2023-12-11T00:23:07.969Z,99322.80
2023-12-11T00:25:48.933Z,99326.20
2023-12-11T00:28:23.628Z,99331.40
2023-12-11T00:30:58.516Z,99331.20
2023-12-11T00:33:33.638Z,99323.20
2023-12-11T00:36:09.366Z,99328.00
2023-12-11T00:38:44.056Z,99317.80
2023-12-11T00:41:19.245Z,99322.60
2023-12-11T00:43:53.746Z,99321.00
2023-12-11T00:46:28.854Z,99319.20
2023-12-11T00:49:03.585Z,99324.60
2023-12-11T00:51:38.497Z,99319.80
2023-12-11T00:54:13.652Z,99333.20
2023-12-11T00:56:48.518Z,99319.80
2023-12-11T00:59:23.259Z,99314.00
2023-12-11T01:01:58.029Z,99311.00
2023-12-11T01:04:32.812Z,99313.00
2023-12-11T01:07:08.093Z,99308.80
2023-12-11T01:09:43.705Z,99312.00
2023-12-11T01:12:18.330Z,99310.40
2023-12-11T01:14:53.038Z,99306.20
2023-12-11T01:17:38.470Z,99303.20
2023-12-11T01:20:16.937Z,99312.20
2023-12-11T01:22:52.187Z,99299.00
2023-12-11T01:25:27.116Z,99289.80
2023-12-11T01:28:02.285Z,99276.20
2023-12-11T01:30:37.354Z,99267.00
2023-12-11T01:33:12.400Z,99250.60
2023-12-11T01:35:47.455Z,99229.60
2023-12-11T01:38:22.702Z,99229.80
2023-12-11T01:40:57.845Z,99229.00
2023-12-11T01:43:32.655Z,99228.60
2023-12-11T01:46:13.596Z,99230.60
2023-12-11T01:48:48.807Z,99261.00
2023-12-11T01:51:26.260Z,99294.40
2023-12-11T01:54:01.852Z,99295.00
2023-12-11T01:56:36.724Z,99259.60
2023-12-11T01:59:11.796Z,99248.20
2023-12-11T02:01:47.660Z,99260.00
2023-12-11T02:04:23.805Z,99269.80
2023-12-11T02:06:58.805Z,99253.20
2023-12-11T02:09:33.598Z,99253.00
2023-12-11T02:12:09.556Z,99229.00
2023-12-11T02:14:45.326Z,99210.40
2023-12-11T02:17:20.147Z,99194.20
2023-12-11T02:19:55.165Z,99172.80
2023-12-11T02:22:30.773Z,99162.00
2023-12-11T02:25:12.184Z,99171.60
2023-12-11T02:27:46.910Z,99188.00
2023-12-11T02:30:21.993Z,99195.00
2023-12-11T02:32:58.483Z,99194.40
2023-12-11T02:35:33.936Z,99194.80
2023-12-11T02:38:08.630Z,99183.60
2023-12-11T02:40:43.517Z,99173.00
2023-12-11T02:43:18.384Z,99175.60
2023-12-11T02:45:53.440Z,99153.80
2023-12-11T02:48:28.597Z,99140.60
2023-12-11T02:51:03.893Z,99133.60
2023-12-11T02:53:38.834Z,99125.20
2023-12-11T02:56:14.701Z,99114.60
2023-12-11T02:58:49.834Z,99117.00
2023-12-11T03:01:25.635Z,99120.40
2023-12-11T03:04:00.634Z,99113.20
2023-12-11T03:06:35.754Z,99117.60
2023-12-11T03:09:10.866Z,99120.40
2023-12-11T03:11:45.715Z,99109.40
2023-12-11T03:14:20.447Z,99106.80
2023-12-11T03:16:55.232Z,99103.40
2023-12-11T03:19:30.908Z,99093.20
2023-12-11T03:22:06.200Z,99094.40
2023-12-11T03:24:41.213Z,99089.40
2023-12-11T03:27:15.889Z,99087.40
2023-12-11T03:29:50.740Z,99085.80
2023-12-11T03:32:25.607Z,99080.60
2023-12-11T03:35:01.950Z,99069.40
2023-12-11T03:37:36.825Z,99062.80
2023-12-11T03:40:15.148Z,99056.80
2023-12-11T03:42:50.343Z,99059.60
2023-12-11T03:45:25.785Z,99053.40
2023-12-11T03:48:00.583Z,99044.20
2023-12-11T03:50:35.643Z,99056.80
2023-12-11T03:53:11.651Z,99056.80
2023-12-11T03:55:46.405Z,99059.20
2023-12-11T03:58:21.839Z,99052.00
2023-12-11T04:00:56.896Z,99045.80
2023-12-11T04:03:32.742Z,99042.00
2023-12-11T04:06:09.264Z,99042.20
2023-12-11T04:08:46.126Z,99040.60
2023-12-11T04:11:21.170Z,99037.40
2023-12-11T04:13:56.134Z,99035.40
2023-12-11T04:16:30.874Z,99034.40
2023-12-11T04:19:08.235Z,99033.40
2023-12-11T04:21:43.211Z,99019.60
2023-12-11T04:24:18.243Z,99015.80
2023-12-11T04:26:52.841Z,99011.60
2023-12-11T04:29:27.983Z,99013.80
2023-12-11T04:32:03.100Z,99018.60
2023-12-11T04:34:38.123Z,99012.80
2023-12-11T04:37:13.142Z,99011.20
2023-12-11T04:39:47.915Z,99013.80
2023-12-11T04:42:22.783Z,99015.40
2023-12-11T04:44:57.669Z,99015.00
2023-12-11T04:47:32.709Z,99009.40
2023-12-11T04:50:08.594Z,99005.00
2023-12-11T04:52:43.320Z,99003.80
2023-12-11T04:55:18.379Z,98994.60
2023-12-11T04:57:53.145Z,98990.20
2023-12-11T05:00:28.516Z,98990.20
2023-12-11T05:03:03.806Z,98986.40
2023-12-11T05:05:39.024Z,98987.60
2023-12-11T05:08:14.268Z,98982.20
2023-12-11T05:10:49.906Z,98976.80
2023-12-11T05:13:25.245Z,98979.20
2023-12-11T05:16:00.122Z,98980.40
2023-12-11T05:18:38.448Z,98978.60
2023-12-11T05:21:15.024Z,98980.80
2023-12-11T05:23:51.403Z,98982.20
2023-12-11T05:26:26.501Z,98982.40
2023-12-11T05:29:01.862Z,98979.00
2023-12-11T05:31:36.678Z,98977.80
2023-12-11T05:34:11.921Z,98985.20
2023-12-11T05:36:47.263Z,98977.00
2023-12-11T05:39:22.045Z,98978.00
2023-12-11T05:41:56.985Z,98976.60
2023-12-11T05:44:31.828Z,98979.80
2023-12-11T05:47:06.829Z,98973.00
2023-12-11T05:49:41.700Z,98975.40
2023-12-11T05:52:16.961Z,98977.40
2023-12-11T05:54:55.197Z,98974.80
2023-12-11T05:57:30.060Z,98979.00
2023-12-11T06:00:06.070Z,98984.40
2023-12-11T06:02:41.767Z,98987.60
2023-12-11T06:05:17.213Z,98977.80
2023-12-11T06:07:52.791Z,98978.20
2023-12-11T06:10:27.825Z,98987.00
2023-12-11T06:13:02.675Z,98986.40
2023-12-11T06:15:37.431Z,98974.80
2023-12-11T06:18:13.516Z,98974.80
2023-12-11T06:20:49.126Z,98977.60
2023-12-11T06:23:26.069Z,98986.40
2023-12-11T06:26:00.915Z,98985.80
2023-12-11T06:28:36.046Z,98977.60
2023-12-11T06:31:11.525Z,98989.80
2023-12-11T06:33:46.395Z,98988.00
2023-12-11T06:36:21.612Z,98989.40
2023-12-11T06:38:57.068Z,98995.60
2023-12-11T06:41:31.796Z,99002.20
2023-12-11T06:44:07.227Z,98996.40
2023-12-11T06:46:42.681Z,98990.60
2023-12-11T06:49:17.823Z,98993.60
2023-12-11T06:51:54.302Z,99006.60
2023-12-11T06:54:29.817Z,98999.00
2023-12-11T06:57:05.458Z,98996.00
2023-12-11T06:59:40.594Z,99000.20
2023-12-11T07:02:15.540Z,99009.40
2023-12-11T07:04:52.858Z,98999.40
2023-12-11T07:07:28.144Z,99006.60
2023-12-11T07:10:05.981Z,99009.60
2023-12-11T07:12:47.246Z,99009.00
2023-12-11T07:15:22.485Z,99004.20
2023-12-11T07:17:57.801Z,99007.80
2023-12-11T07:20:34.695Z,99011.40
2023-12-11T07:23:11.330Z,99012.00
2023-12-11T07:25:46.895Z,99012.80
2023-12-11T07:28:21.793Z,99011.20
2023-12-11T07:30:56.942Z,99014.20
2023-12-11T07:33:31.848Z,99009.20
2023-12-11T07:36:08.406Z,99021.00
2023-12-11T07:38:43.950Z,99021.00
2023-12-11T07:41:24.665Z,99006.20
2023-12-11T07:44:00.243Z,99015.00
2023-12-11T07:46:35.619Z,99020.40
2023-12-11T07:49:14.165Z,99013.00
2023-12-11T07:51:49.844Z,99010.60
2023-12-11T07:54:25.145Z,99011.00
2023-12-11T07:57:00.636Z,99012.80
2023-12-11T07:59:35.409Z,99006.60
2023-12-11T08:02:10.538Z,99005.80
2023-12-11T08:04:46.488Z,99008.40
2023-12-11T08:07:22.017Z,99011.20
2023-12-11T08:09:57.317Z,99009.80
2023-12-11T08:12:34.810Z,99009.20
2023-12-11T08:15:12.561Z,99012.00
2023-12-11T08:17:47.827Z,99009.20
2023-12-11T08:20:23.479Z,99009.20
2023-12-11T08:22:58.957Z,99011.20
2023-12-11T08:25:34.613Z,99004.00
2023-12-11T08:28:10.492Z,99012.00
2023-12-11T08:30:45.717Z,99005.80
2023-12-11T08:33:21.334Z,99003.40
2023-12-11T08:35:56.295Z,99011.80
2023-12-11T08:38:32.585Z,99002.60
2023-12-11T08:41:08.149Z,99012.00
2023-12-11T08:43:43.336Z,99010.20
2023-12-11T08:46:18.477Z,99008.80
2023-12-11T08:48:53.562Z,99013.40
2023-12-11T08:51:28.520Z,99016.80
2023-12-11T08:54:03.944Z,99016.40
2023-12-11T08:56:38.704Z,99017.20
2023-12-11T08:59:15.149Z,99021.20
2023-12-11T09:01:51.094Z,99018.00
2023-12-11T09:04:27.009Z,99026.00
2023-12-11T09:07:02.412Z,99026.00
2023-12-11T09:09:37.342Z,99018.60
2023-12-11T09:12:23.372Z,99021.40
2023-12-11T09:15:07.466Z,99021.00
2023-12-11T09:17:44.403Z,99022.00
2023-12-11T09:20:19.713Z,99014.80
2023-12-11T09:22:55.221Z,99015.40
2023-12-11T09:25:31.608Z,99017.80
2023-12-11T09:28:07.480Z,99007.80
2023-12-11T09:30:42.998Z,99015.60
2023-12-11T09:33:18.717Z,99012.20
2023-12-11T09:35:54.589Z,99011.40
2023-12-11T09:38:30.171Z,98999.00
2023-12-11T09:41:07.420Z,99001.00
2023-12-11T09:43:42.955Z,99003.20
2023-12-11T09:46:20.853Z,98989.20
2023-12-11T09:48:58.053Z,99006.00
2023-12-11T09:51:34.185Z,98997.20
2023-12-11T09:54:14.378Z,98991.20
2023-12-11T09:56:51.434Z,98994.40
2023-12-11T09:59:29.156Z,98979.20
2023-12-11T10:02:07.167Z,98973.60
2023-12-11T10:04:59.587Z,98967.60
2023-12-11T10:07:35.185Z,98964.20
2023-12-11T10:10:28.960Z,98957.60
2023-12-11T10:13:05.132Z,98958.60
2023-12-11T10:15:42.447Z,98958.00
2023-12-11T10:18:19.773Z,98949.80
2023-12-11T10:21:00.142Z,98949.60
2023-12-11T10:23:36.634Z,98942.60
2023-12-11T10:26:15.596Z,98939.40
2023-12-11T10:28:51.812Z,98936.00
2023-12-11T10:31:40.763Z,98940.60
2023-12-11T10:34:16.975Z,98931.20
2023-12-11T10:36:56.708Z,98942.80
2023-12-11T10:39:32.794Z,98933.00
2023-12-11T10:42:19.111Z,98936.00
2023-12-11T10:45:04.352Z,98934.00
2023-12-11T10:47:42.838Z,98926.00
2023-12-11T10:50:19.563Z,98924.60
2023-12-11T10:52:57.678Z,98919.60
2023-12-11T10:55:34.859Z,98912.20
2023-12-11T10:58:13.893Z,98907.80
2023-12-11T11:00:52.227Z,98902.20
2023-12-11T11:03:28.886Z,98897.60
2023-12-11T11:06:09.905Z,98885.40
2023-12-11T11:08:56.937Z,98886.20
2023-12-11T11:11:39.377Z,98883.00
2023-12-11T11:14:46.396Z,98879.60
2023-12-11T11:17:22.076Z,98870.00
2023-12-11T11:20:20.660Z,98878.40
2023-12-11T11:23:33.751Z,98879.20
2023-12-11T11:26:39.573Z,98878.40
2023-12-11T11:29:46.363Z,98879.80
2023-12-11T11:32:21.366Z,98877.60
2023-12-11T11:34:58.177Z,98886.60
2023-12-11T11:37:55.496Z,98885.60
2023-12-11T11:40:40.382Z,98872.00
2023-12-11T11:43:16.737Z,98867.80
2023-12-11T11:45:59.601Z,98861.20
2023-12-11T11:48:47.553Z,98869.80
2023-12-11T11:51:23.368Z,98866.60
2023-12-11T11:54:03.866Z,98859.60
2023-12-11T11:56:48.884Z,98865.20
2023-12-11T11:59:23.666Z,98861.00
2023-12-11T12:02:01.259Z,98856.80
2023-12-11T12:04:38.260Z,98858.80
2023-12-11T12:07:13.055Z,98850.20
2023-12-11T12:09:53.446Z,98846.60
2023-12-11T12:12:28.943Z,98846.80
2023-12-11T12:15:09.130Z,98843.80
2023-12-11T12:17:44.404Z,98823.40
2023-12-11T12:20:21.383Z,98826.20
2023-12-11T12:23:11.418Z,98818.20
2023-12-11T12:25:47.057Z,98814.00
2023-12-11T12:28:23.418Z,98812.60
2023-12-11T12:30:59.053Z,98813.20
2023-12-11T12:33:34.829Z,98817.60
2023-12-11T12:36:13.121Z,98816.80
2023-12-11T12:38:48.908Z,98814.20
2023-12-11T12:41:25.576Z,98808.20
2023-12-11T12:44:06.019Z,98803.40
2023-12-11T12:46:49.107Z,98803.60
2023-12-11T12:49:25.110Z,98800.80
2023-12-11T12:52:00.391Z,98805.40
2023-12-11T12:54:53.095Z,98807.60
2023-12-11T12:57:29.837Z,98807.00
2023-12-11T13:00:07.065Z,98807.80
2023-12-11T13:02:42.134Z,98804.40
2023-12-11T13:05:17.707Z,98809.40
2023-12-11T13:08:07.619Z,98825.00
2023-12-11T13:10:54.008Z,98827.80
2023-12-11T13:13:31.121Z,98825.60
2023-12-11T13:16:07.839Z,98829.80
2023-12-11T13:18:42.735Z,98830.00
2023-12-11T13:21:18.638Z,98825.00
2023-12-11T13:23:58.235Z,98834.60
2023-12-11T13:26:34.280Z,98848.40
2023-12-11T13:29:09.400Z,98841.80
2023-12-11T13:31:44.088Z,98843.80
2023-12-11T13:34:20.007Z,98855.20
2023-12-11T13:36:54.891Z,98853.00
2023-12-11T13:39:33.400Z,98854.80
2023-12-11T13:42:08.873Z,98863.20
2023-12-11T13:44:48.062Z,98866.20
2023-12-11T13:47:23.315Z,98865.00
2023-12-11T13:49:58.177Z,98868.40
2023-12-11T13:52:35.633Z,98868.40
2023-12-11T13:55:11.368Z,98865.20
2023-12-11T13:57:46.216Z,98870.20
2023-12-11T14:00:22.145Z,98876.80
2023-12-11T14:03:02.592Z,98879.60
2023-12-11T14:05:39.610Z,98877.00
2023-12-11T14:08:14.795Z,98883.80
2023-12-11T14:10:51.538Z,98881.00
2023-12-11T14:13:26.870Z,98882.00
2023-12-11T14:16:01.459Z,98886.40
2023-12-11T14:18:36.953Z,98882.20
2023-12-11T14:21:13.493Z,98875.00
2023-12-11T14:23:48.255Z,98876.60
2023-12-11T14:26:22.969Z,98878.40
2023-12-11T14:28:57.857Z,98879.00
2023-12-11T14:31:33.105Z,98871.60
2023-12-11T14:34:08.420Z,98872.80
2023-12-11T14:36:44.106Z,98873.40
2023-12-11T14:39:19.090Z,98876.40
2023-12-11T14:41:54.151Z,98870.40
2023-12-11T14:44:29.272Z,98864.40
2023-12-11T14:47:04.403Z,98863.60
2023-12-11T14:49:39.273Z,98864.00
2023-12-11T14:52:13.973Z,98867.60
2023-12-11T14:54:49.092Z,98863.80
2023-12-11T14:57:24.191Z,98868.00
2023-12-11T14:59:59.260Z,98866.00
2023-12-11T15:02:34.623Z,98866.40
2023-12-11T15:05:11.151Z,98859.00
2023-12-11T15:07:46.327Z,98860.00
2023-12-11T15:10:22.306Z,98856.40
2023-12-11T15:12:58.125Z,98854.00
2023-12-11T15:15:33.681Z,98855.20
2023-12-11T15:18:09.757Z,98859.40
2023-12-11T15:20:45.189Z,98861.20
2023-12-11T15:23:21.291Z,98859.60
2023-12-11T15:25:56.108Z,98857.80
2023-12-11T15:28:30.811Z,98859.40
2023-12-11T15:31:13.293Z,98855.20
2023-12-11T15:33:49.020Z,98856.40
2023-12-11T15:36:23.967Z,98854.00
2023-12-11T15:38:58.963Z,98851.20
2023-12-11T15:41:34.177Z,98857.00
2023-12-11T15:44:09.464Z,98851.40
2023-12-11T15:46:47.215Z,98850.20
2023-12-11T15:49:23.360Z,98847.80
2023-12-11T15:52:01.335Z,98856.00
2023-12-11T15:54:37.250Z,98844.20
2023-12-11T15:57:13.454Z,98833.60
2023-12-11T15:59:49.923Z,98834.40
2023-12-11T16:02:25.095Z,98839.80
2023-12-11T16:05:00.234Z,98838.20
2023-12-11T16:07:35.785Z,98838.00
2023-12-11T16:10:12.519Z,98829.20
2023-12-11T16:12:47.109Z,98834.60
2023-12-11T16:15:22.852Z,98833.20
2023-12-11T16:17:59.049Z,98826.80
2023-12-11T16:20:34.049Z,98826.40
2023-12-11T16:23:09.901Z,98819.80
2023-12-11T16:25:51.640Z,98821.00
2023-12-11T16:28:35.518Z,98818.00
2023-12-11T16:31:10.638Z,98820.60
2023-12-11T16:33:48.319Z,98820.60
2023-12-11T16:36:23.038Z,98821.60
2023-12-11T16:38:57.925Z,98821.20
2023-12-11T16:41:33.145Z,98819.20
2023-12-11T16:44:08.316Z,98819.00
2023-12-11T16:46:46.961Z,98819.80
2023-12-11T16:49:22.365Z,98819.60
2023-12-11T16:51:56.906Z,98821.60
2023-12-11T16:54:32.054Z,98822.80
2023-12-11T16:57:08.017Z,98827.20
2023-12-11T16:59:42.630Z,98824.80
2023-12-11T17:02:17.492Z,98825.40
2023-12-11T17:04:53.038Z,98827.60
2023-12-11T17:07:27.838Z,98830.20
2023-12-11T17:10:04.238Z,98831.40
2023-12-11T17:12:39.221Z,98830.40
2023-12-11T17:15:15.926Z,98831.60
2023-12-11T17:17:51.327Z,98841.40
2023-12-11T17:20:26.303Z,98837.40
2023-12-11T17:23:01.590Z,98838.20
2023-12-11T17:25:37.057Z,98834.60
2023-12-11T17:28:12.233Z,98837.00
2023-12-11T17:30:53.366Z,98837.60
2023-12-11T17:33:28.395Z,98833.80
2023-12-11T17:36:05.082Z,98836.00
2023-12-11T17:38:39.642Z,98833.60
2023-12-11T17:41:14.482Z,98833.40
2023-12-11T17:43:49.203Z,98830.00
2023-12-11T17:46:25.404Z,98825.00
2023-12-11T17:49:00.413Z,98820.20
2023-12-11T17:51:35.219Z,98818.60
2023-12-11T17:54:09.765Z,98807.80
2023-12-11T17:56:44.515Z,98797.60
2023-12-11T17:59:19.547Z,98800.00
2023-12-11T18:01:54.752Z,98803.20
2023-12-11T18:04:29.315Z,98806.20
2023-12-11T18:07:06.214Z,98807.80
2023-12-11T18:09:42.251Z,98802.00
2023-12-11T18:12:17.227Z,98797.40
2023-12-11T18:14:52.932Z,98796.80
2023-12-11T18:17:27.932Z,98793.20
2023-12-11T18:20:03.349Z,98793.60
2023-12-11T18:22:38.298Z,98781.80
2023-12-11T18:25:14.022Z,98788.60
2023-12-11T18:27:49.855Z,98796.40
2023-12-11T18:30:25.078Z,98779.20
2023-12-11T18:33:01.250Z,98783.80
2023-12-11T18:35:35.945Z,98774.80
2023-12-11T18:38:11.225Z,98790.80
2023-12-11T18:40:45.909Z,98789.80
2023-12-11T18:43:22.319Z,98782.00
2023-12-11T18:45:57.879Z,98777.80
2023-12-11T18:48:32.835Z,98782.40
2023-12-11T18:51:08.424Z,98783.80
2023-12-11T18:53:44.803Z,98790.60
2023-12-11T18:56:25.905Z,98788.20
2023-12-11T18:59:00.722Z,98781.60
2023-12-11T19:01:35.699Z,98784.80
2023-12-11T19:04:10.953Z,98789.20
2023-12-11T19:06:45.747Z,98794.60
2023-12-11T19:09:20.686Z,98797.40
2023-12-11T19:11:55.785Z,98799.40
2023-12-11T19:14:30.490Z,98799.20
2023-12-11T19:17:05.221Z,98799.60
2023-12-11T19:19:40.034Z,98802.40
2023-12-11T19:22:15.572Z,98799.60
2023-12-11T19:24:50.573Z,98797.60
2023-12-11T19:27:27.619Z,98800.20
2023-12-11T19:30:02.604Z,98803.60
2023-12-11T19:32:38.984Z,98804.00
2023-12-11T19:35:14.372Z,98805.40
2023-12-11T19:37:49.639Z,98816.00
2023-12-11T19:40:24.492Z,98813.80
2023-12-11T19:42:59.614Z,98817.20
2023-12-11T19:45:34.594Z,98815.60
2023-12-11T19:48:11.641Z,98812.40
2023-12-11T19:50:47.343Z,98806.60
2023-12-11T19:53:24.462Z,98815.80
2023-12-11T19:55:59.508Z,98812.80
2023-12-11T19:58:35.003Z,98813.40
2023-12-11T20:01:10.509Z,98812.80
2023-12-11T20:03:47.547Z,98813.20
2023-12-11T20:06:30.421Z,98824.40
2023-12-11T20:09:05.281Z,98820.40
2023-12-11T20:11:40.235Z,98829.60
2023-12-11T20:14:15.284Z,98834.40
2023-12-11T20:16:49.956Z,98835.80
2023-12-11T20:19:26.472Z,98835.00
2023-12-11T20:22:02.325Z,98836.00
2023-12-11T20:24:37.584Z,98838.80
2023-12-11T20:27:12.682Z,98840.40
2023-12-11T20:29:47.759Z,98837.60
2023-12-11T20:32:22.650Z,98839.80
2023-12-11T20:34:57.519Z,98843.40
2023-12-11T20:37:34.325Z,98846.80
2023-12-11T20:40:12.359Z,98854.60
2023-12-11T20:42:47.905Z,98853.60
2023-12-11T20:45:24.104Z,98858.40
2023-12-11T20:47:59.018Z,98875.40
2023-12-11T20:50:34.195Z,98866.80
2023-12-11T20:53:09.480Z,98873.00
2023-12-11T20:55:46.751Z,98882.40
2023-12-11T20:58:21.867Z,98886.00
2023-12-11T21:00:57.250Z,98872.60
2023-12-11T21:03:32.394Z,98875.80
2023-12-11T21:06:08.315Z,98884.20
2023-12-11T21:08:45.139Z,98893.00
2023-12-11T21:11:20.557Z,98897.00
2023-12-11T21:13:55.816Z,98900.00
2023-12-11T21:16:31.123Z,98902.00
2023-12-11T21:19:06.005Z,98894.80
2023-12-11T21:21:41.288Z,98895.60
2023-12-11T21:24:16.077Z,98898.20
2023-12-11T21:26:53.606Z,98899.80
2023-12-11T21:29:28.597Z,98899.20
2023-12-11T21:32:05.624Z,98901.40
2023-12-11T21:34:43.407Z,98904.20
2023-12-11T21:37:18.602Z,98909.00
2023-12-11T21:39:53.941Z,98920.60
2023-12-11T21:42:28.758Z,98920.40
2023-12-11T21:45:04.136Z,98912.00
2023-12-11T21:47:39.147Z,98917.40
2023-12-11T21:50:15.656Z,98924.00
2023-12-11T21:52:52.159Z,98927.80
2023-12-11T21:55:27.580Z,98924.80
2023-12-11T21:58:02.582Z,98934.00
2023-12-11T22:00:38.018Z,98944.20
2023-12-11T22:03:13.090Z,98950.80
2023-12-11T22:05:48.300Z,98949.60
2023-12-11T22:08:23.381Z,98956.20
2023-12-11T22:10:58.140Z,98966.60
2023-12-11T22:13:33.792Z,98968.80
2023-12-11T22:16:10.759Z,98979.00
2023-12-11T22:18:48.793Z,98984.20
2023-12-11T22:21:31.087Z,98990.40
2023-12-11T22:24:06.367Z,98983.40
2023-12-11T22:26:45.398Z,98987.00
2023-12-11T22:29:20.174Z,98994.40
2023-12-11T22:31:55.140Z,98999.20
2023-12-11T22:34:31.198Z,99010.20
2023-12-11T22:37:06.344Z,99007.20
2023-12-11T22:39:46.484Z,99017.20
2023-12-11T22:42:21.511Z,99022.60
2023-12-11T22:44:56.494Z,99029.60
2023-12-11T22:47:31.578Z,99018.40
2023-12-11T22:50:07.211Z,99029.60
2023-12-11T22:52:42.122Z,99039.40
2023-12-11T22:55:18.056Z,99037.80
2023-12-11T22:58:05.763Z,99046.40
2023-12-11T23:00:48.011Z,99046.60
2023-12-11T23:03:24.149Z,99057.80
2023-12-11T23:05:59.345Z,99055.40
2023-12-11T23:08:34.206Z,99060.80
2023-12-11T23:11:11.237Z,99068.80
2023-12-11T23:13:45.660Z,99067.60
2023-12-11T23:16:20.274Z,99071.40
2023-12-11T23:19:00.404Z,99071.20
2023-12-11T23:21:38.315Z,99078.60
2023-12-11T23:24:13.283Z,99085.80
2023-12-11T23:26:48.158Z,99089.20
2023-12-11T23:29:22.903Z,99085.40
2023-12-11T23:31:57.576Z,99087.00
2023-12-11T23:34:32.362Z,99088.60
2023-12-11T23:37:07.604Z,99094.80
2023-12-11T23:39:42.525Z,99101.60
2023-12-11T23:42:17.897Z,99099.20
2023-12-11T23:44:53.235Z,99104.60
2023-12-11T23:47:27.824Z,99103.20
2023-12-11T23:50:03.620Z,99101.20
2023-12-11T23:52:38.766Z,99115.40
2023-12-11T23:55:14.182Z,99119.60
2023-12-11T23:57:50.425Z,99121.20
